sensor_id;sensor_type;location;lat;lon;timestamp;pressure;altitude;pressure_sealevel;temperature;humidity
39699;BME280;25372;50.582;12.250;2023-01-30T00:00:35;99913.84;;;-1.93;84.05
39699;BME280;25372;50.582;12.250;2023-01-30T00:11:02;99883.41;;;-1.90;83.68
39699;BME280;25372;50.582;12.250;2023-01-30T00:21:22;99878.94;;;-1.88;83.08
39699;BME280;25372;50.582;12.250;2023-01-30T00:31:44;99859.94;;;-1.89;82.90
39699;BME280;25372;50.582;12.250;2023-01-30T00:42:05;99847.56;;;-1.85;83.74
39699;BME280;25372;50.582;12.250;2023-01-30T00:52:45;99807.75;;;-1.86;84.00
39699;BME280;25372;50.582;12.250;2023-01-30T01:03:06;99796.22;;;-1.82;84.54
39699;BME280;25372;50.582;12.250;2023-01-30T01:13:27;99796.28;;;-1.70;83.29
39699;BME280;25372;50.582;12.250;2023-01-30T01:23:49;99754.44;;;-1.79;84.61
39699;BME280;25372;50.582;12.250;2023-01-30T01:34:12;99717.88;;;-1.88;86.87
39699;BME280;25372;50.582;12.250;2023-01-30T01:45:00;99704.31;;;-2.05;88.13
39699;BME280;25372;50.582;12.250;2023-01-30T01:55:25;99687.69;;;-2.02;90.59
39699;BME280;25372;50.582;12.250;2023-01-30T02:05:49;99637.38;;;-2.01;92.54
39699;BME280;25372;50.582;12.250;2023-01-30T02:16:12;99625.09;;;-1.86;93.83
39699;BME280;25372;50.582;12.250;2023-01-30T02:27:06;99614.75;;;-1.75;94.25
39699;BME280;25372;50.582;12.250;2023-01-30T02:37:46;99591.81;;;-1.57;94.73
39699;BME280;25372;50.582;12.250;2023-01-30T02:48:11;99620.75;;;-1.26;94.12
39699;BME280;25372;50.582;12.250;2023-01-30T02:58:37;99564.91;;;-0.98;94.19
39699;BME280;25372;50.582;12.250;2023-01-30T03:09:10;99553.72;;;-0.76;94.04
39699;BME280;25372;50.582;12.250;2023-01-30T03:19:37;99525.53;;;-0.59;94.19
39699;BME280;25372;50.582;12.250;2023-01-30T03:29:57;99475.69;;;-0.43;93.28
39699;BME280;25372;50.582;12.250;2023-01-30T03:40:20;99468.59;;;-0.41;93.87
39699;BME280;25372;50.582;12.250;2023-01-30T03:50:42;99424.78;;;-0.36;94.33
39699;BME280;25372;50.582;12.250;2023-01-30T04:01:05;99429.53;;;-0.41;94.15
39699;BME280;25372;50.582;12.250;2023-01-30T04:11:26;99421.00;;;-0.32;93.75
39699;BME280;25372;50.582;12.250;2023-01-30T04:21:48;99392.22;;;-0.30;93.86
39699;BME280;25372;50.582;12.250;2023-01-30T04:32:09;99354.53;;;-0.26;94.05
39699;BME280;25372;50.582;12.250;2023-01-30T04:42:33;99363.59;;;0.12;92.84
39699;BME280;25372;50.582;12.250;2023-01-30T04:53:23;99300.41;;;-0.02;92.48
39699;BME280;25372;50.582;12.250;2023-01-30T05:03:48;99304.06;;;0.48;91.13
39699;BME280;25372;50.582;12.250;2023-01-30T05:14:09;99265.13;;;0.56;91.58
39699;BME280;25372;50.582;12.250;2023-01-30T05:24:31;99240.44;;;0.60;91.35
39699;BME280;25372;50.582;12.250;2023-01-30T05:34:52;99228.22;;;0.61;91.22
39699;BME280;25372;50.582;12.250;2023-01-30T05:45:14;99217.53;;;0.74;92.21
39699;BME280;25372;50.582;12.250;2023-01-30T05:55:34;99196.25;;;0.68;93.59
39699;BME280;25372;50.582;12.250;2023-01-30T06:05:57;99195.97;;;0.81;93.84
39699;BME280;25372;50.582;12.250;2023-01-30T06:16:18;99177.19;;;0.88;93.24
39699;BME280;25372;50.582;12.250;2023-01-30T06:26:40;99183.75;;;0.92;92.76
39699;BME280;25372;50.582;12.250;2023-01-30T06:37:01;99185.41;;;0.93;94.95
39699;BME280;25372;50.582;12.250;2023-01-30T06:47:23;99189.66;;;0.94;97.74
39699;BME280;25372;50.582;12.250;2023-01-30T06:57:43;99197.22;;;0.77;100.00
39699;BME280;25372;50.582;12.250;2023-01-30T07:08:06;99218.88;;;0.58;100.00
39699;BME280;25372;50.582;12.250;2023-01-30T07:18:27;99207.50;;;0.69;100.00
39699;BME280;25372;50.582;12.250;2023-01-30T07:28:49;99177.72;;;0.91;100.00
39699;BME280;25372;50.582;12.250;2023-01-30T07:39:10;99163.69;;;1.12;100.00
39699;BME280;25372;50.582;12.250;2023-01-30T07:49:32;99176.16;;;1.28;100.00
39699;BME280;25372;50.582;12.250;2023-01-30T07:59:52;99155.84;;;1.21;100.00
39699;BME280;25372;50.582;12.250;2023-01-30T08:10:15;99189.78;;;1.21;100.00
39699;BME280;25372;50.582;12.250;2023-01-30T08:20:36;99184.00;;;1.18;100.00
39699;BME280;25372;50.582;12.250;2023-01-30T08:30:58;99183.34;;;0.96;100.00
39699;BME280;25372;50.582;12.250;2023-01-30T08:41:19;99179.47;;;1.20;100.00
39699;BME280;25372;50.582;12.250;2023-01-30T08:51:40;99165.63;;;1.19;100.00
39699;BME280;25372;50.582;12.250;2023-01-30T09:02:01;99199.16;;;1.71;100.00
39699;BME280;25372;50.582;12.250;2023-01-30T09:12:23;99177.44;;;1.71;100.00
39699;BME280;25372;50.582;12.250;2023-01-30T09:22:44;99176.25;;;2.21;100.00
39699;BME280;25372;50.582;12.250;2023-01-30T09:33:06;99171.22;;;2.09;100.00
39699;BME280;25372;50.582;12.250;2023-01-30T09:43:37;99177.34;;;1.90;100.00
39699;BME280;25372;50.582;12.250;2023-01-30T09:54:16;99150.25;;;2.19;100.00
39699;BME280;25372;50.582;12.250;2023-01-30T10:04:44;99127.41;;;1.94;100.00
39699;BME280;25372;50.582;12.250;2023-01-30T10:15:18;99130.63;;;2.87;94.95
39699;BME280;25372;50.582;12.250;2023-01-30T10:25:44;99102.69;;;2.52;93.93
39699;BME280;25372;50.582;12.250;2023-01-30T10:36:10;99122.97;;;2.94;92.03
39699;BME280;25372;50.582;12.250;2023-01-30T10:46:45;99113.50;;;2.93;92.25
39699;BME280;25372;50.582;12.250;2023-01-30T10:57:19;99128.69;;;2.71;93.43
39699;BME280;25372;50.582;12.250;2023-01-30T11:07:45;99133.53;;;2.66;94.64
39699;BME280;25372;50.582;12.250;2023-01-30T11:18:07;99133.09;;;2.53;96.36
39699;BME280;25372;50.582;12.250;2023-01-30T11:28:34;99131.34;;;2.25;97.38
39699;BME280;25372;50.582;12.250;2023-01-30T11:38:58;99123.00;;;2.22;98.81
39699;BME280;25372;50.582;12.250;2023-01-30T11:49:20;99122.84;;;2.23;98.72
39699;BME280;25372;50.582;12.250;2023-01-30T11:59:45;99107.53;;;2.29;99.05
39699;BME280;25372;50.582;12.250;2023-01-30T12:10:25;99080.84;;;2.43;97.98
39699;BME280;25372;50.582;12.250;2023-01-30T12:20:51;99064.09;;;2.72;96.51
39699;BME280;25372;50.582;12.250;2023-01-30T12:31:19;99031.50;;;2.66;96.93
39699;BME280;25372;50.582;12.250;2023-01-30T12:41:55;99060.22;;;2.76;95.94
39699;BME280;25372;50.582;12.250;2023-01-30T12:52:31;99026.78;;;2.43;98.77
39699;BME280;25372;50.582;12.250;2023-01-30T13:03:14;99044.81;;;2.73;97.44
39699;BME280;25372;50.582;12.250;2023-01-30T13:13:42;99045.59;;;2.47;97.56
39699;BME280;25372;50.582;12.250;2023-01-30T13:24:17;99037.75;;;2.47;96.51
39699;BME280;25372;50.582;12.250;2023-01-30T13:34:43;99021.44;;;2.71;95.75
39699;BME280;25372;50.582;12.250;2023-01-30T13:45:13;99038.50;;;2.84;94.31
39699;BME280;25372;50.582;12.250;2023-01-30T13:55:39;99003.91;;;2.72;94.67
39699;BME280;25372;50.582;12.250;2023-01-30T14:06:11;99024.19;;;2.96;93.00
39699;BME280;25372;50.582;12.250;2023-01-30T14:16:40;99017.34;;;3.29;91.74
39699;BME280;25372;50.582;12.250;2023-01-30T14:27:21;99032.78;;;2.80;93.20
39699;BME280;25372;50.582;12.250;2023-01-30T14:37:49;99026.16;;;2.50;95.09
39699;BME280;25372;50.582;12.250;2023-01-30T14:48:37;99044.91;;;2.63;94.74
39699;BME280;25372;50.582;12.250;2023-01-30T14:59:01;99043.84;;;2.74;93.77
39699;BME280;25372;50.582;12.250;2023-01-30T15:09:26;99039.38;;;2.66;93.46
39699;BME280;25372;50.582;12.250;2023-01-30T15:19:59;99032.47;;;2.39;95.29
39699;BME280;25372;50.582;12.250;2023-01-30T15:30:31;99081.75;;;2.34;97.66
39699;BME280;25372;50.582;12.250;2023-01-30T15:41:03;99118.13;;;2.09;100.00
39699;BME280;25372;50.582;12.250;2023-01-30T15:51:28;99159.19;;;1.51;100.00
39699;BME280;25372;50.582;12.250;2023-01-30T16:01:57;99177.81;;;1.19;100.00
39699;BME280;25372;50.582;12.250;2023-01-30T16:12:27;99180.66;;;1.45;100.00
39699;BME280;25372;50.582;12.250;2023-01-30T16:22:48;99190.13;;;1.56;100.00
39699;BME280;25372;50.582;12.250;2023-01-30T16:33:14;99191.38;;;1.62;100.00
39699;BME280;25372;50.582;12.250;2023-01-30T16:43:36;99182.88;;;1.87;100.00
39699;BME280;25372;50.582;12.250;2023-01-30T16:54:04;99179.34;;;2.06;100.00
39699;BME280;25372;50.582;12.250;2023-01-30T17:04:32;99211.91;;;2.22;100.00
39699;BME280;25372;50.582;12.250;2023-01-30T17:15:25;99234.84;;;1.90;100.00
39699;BME280;25372;50.582;12.250;2023-01-30T17:25:46;99252.78;;;1.76;100.00
39699;BME280;25372;50.582;12.250;2023-01-30T17:36:15;99221.59;;;2.02;100.00
39699;BME280;25372;50.582;12.250;2023-01-30T17:46:39;99241.13;;;2.07;100.00
39699;BME280;25372;50.582;12.250;2023-01-30T17:57:04;99270.47;;;1.91;100.00
39699;BME280;25372;50.582;12.250;2023-01-30T18:07:26;99293.69;;;2.04;100.00
39699;BME280;25372;50.582;12.250;2023-01-30T18:17:50;99319.09;;;2.12;100.00
39699;BME280;25372;50.582;12.250;2023-01-30T18:28:13;99343.50;;;1.93;100.00
39699;BME280;25372;50.582;12.250;2023-01-30T18:38:35;99375.16;;;2.00;100.00
39699;BME280;25372;50.582;12.250;2023-01-30T18:48:56;99376.19;;;2.17;100.00
39699;BME280;25372;50.582;12.250;2023-01-30T18:59:19;99398.03;;;2.35;100.00
39699;BME280;25372;50.582;12.250;2023-01-30T19:09:39;99420.97;;;2.61;100.00
39699;BME280;25372;50.582;12.250;2023-01-30T19:20:02;99428.03;;;2.51;100.00
39699;BME280;25372;50.582;12.250;2023-01-30T19:30:29;99448.91;;;2.60;100.00
39699;BME280;25372;50.582;12.250;2023-01-30T19:40:51;99454.25;;;2.78;98.33
39699;BME280;25372;50.582;12.250;2023-01-30T19:51:14;99485.06;;;2.85;97.77
39699;BME280;25372;50.582;12.250;2023-01-30T20:01:36;99512.47;;;2.90;97.07
39699;BME280;25372;50.582;12.250;2023-01-30T20:11:57;99538.78;;;2.89;96.54
39699;BME280;25372;50.582;12.250;2023-01-30T20:22:19;99531.53;;;2.83;96.91
39699;BME280;25372;50.582;12.250;2023-01-30T20:32:40;99544.41;;;3.04;94.35
39699;BME280;25372;50.582;12.250;2023-01-30T20:43:03;99546.50;;;3.00;94.59
39699;BME280;25372;50.582;12.250;2023-01-30T20:53:23;99567.75;;;2.77;95.38
39699;BME280;25372;50.582;12.250;2023-01-30T21:03:47;99612.78;;;2.52;95.71
39699;BME280;25372;50.582;12.250;2023-01-30T21:14:08;99608.50;;;2.41;97.23
39699;BME280;25372;50.582;12.250;2023-01-30T21:24:30;99615.53;;;2.60;96.65
39699;BME280;25372;50.582;12.250;2023-01-30T21:34:50;99624.47;;;2.87;95.46
39699;BME280;25372;50.582;12.250;2023-01-30T21:45:12;99646.66;;;2.63;100.00
39699;BME280;25372;50.582;12.250;2023-01-30T21:55:33;99665.84;;;2.13;100.00
39699;BME280;25372;50.582;12.250;2023-01-30T22:05:55;99676.94;;;1.96;100.00
39699;BME280;25372;50.582;12.250;2023-01-30T22:16:18;99681.13;;;2.18;100.00
39699;BME280;25372;50.582;12.250;2023-01-30T22:26:40;99689.84;;;2.28;100.00
39699;BME280;25372;50.582;12.250;2023-01-30T22:37:01;99731.72;;;2.38;99.36
39699;BME280;25372;50.582;12.250;2023-01-30T22:47:23;99740.81;;;2.43;95.66
39699;BME280;25372;50.582;12.250;2023-01-30T22:57:44;99742.09;;;2.08;96.82
39699;BME280;25372;50.582;12.250;2023-01-30T23:08:06;99750.19;;;2.05;97.38
39699;BME280;25372;50.582;12.250;2023-01-30T23:18:27;99733.63;;;2.26;96.66
39699;BME280;25372;50.582;12.250;2023-01-30T23:29:08;99727.78;;;2.63;92.90
39699;BME280;25372;50.582;12.250;2023-01-30T23:39:31;99735.22;;;2.58;94.46
39699;BME280;25372;50.582;12.250;2023-01-30T23:49:53;99750.44;;;2.33;94.79
